createdAt,value
2022-08-20T00:02:27.866Z,20.17
2022-08-20T00:05:31.684Z,20.18
2022-08-20T00:08:34.004Z,20.17
2022-08-20T00:11:36.522Z,20.16
2022-08-20T00:14:39.440Z,20.14
2022-08-20T00:17:43.259Z,20.11
2022-08-20T00:20:46.284Z,20.06
2022-08-20T00:23:53.157Z,20.06
2022-08-20T00:26:54.899Z,20.01
2022-08-20T00:29:56.679Z,20.00
2022-08-20T00:33:05.750Z,20.00
2022-08-20T00:36:09.709Z,20.00
2022-08-20T00:39:11.344Z,19.96
2022-08-20T00:42:15.971Z,19.94
2022-08-20T00:45:21.118Z,19.84
2022-08-20T00:48:33.164Z,19.80
2022-08-20T00:51:36.170Z,19.80
2022-08-20T00:54:39.382Z,19.76
2022-08-20T00:57:53.271Z,19.73
2022-08-20T01:01:04.916Z,19.74
2022-08-20T01:04:13.275Z,19.74
2022-08-20T01:07:15.328Z,19.70
2022-08-20T01:10:19.706Z,19.65
2022-08-20T01:13:23.878Z,19.68
2022-08-20T01:16:29.456Z,19.69
2022-08-20T01:19:36.995Z,19.72
2022-08-20T01:22:59.917Z,19.68
2022-08-20T01:26:06.372Z,19.58
2022-08-20T01:29:11.010Z,19.59
2022-08-20T01:32:12.785Z,19.57
2022-08-20T01:35:18.554Z,19.53
2022-08-20T01:38:20.878Z,19.47
2022-08-20T01:41:29.469Z,19.45
2022-08-20T01:44:32.534Z,19.40
2022-08-20T01:47:38.820Z,19.40
2022-08-20T01:50:49.079Z,19.40
2022-08-20T01:53:52.758Z,19.40
2022-08-20T01:56:57.688Z,19.38
2022-08-20T01:59:59.379Z,19.40
2022-08-20T02:03:03.377Z,19.40
2022-08-20T02:06:05.788Z,19.45
2022-08-20T02:09:11.231Z,19.52
2022-08-20T02:12:17.884Z,19.52
2022-08-20T02:15:30.736Z,19.55
2022-08-20T02:18:37.237Z,19.59
2022-08-20T02:21:40.613Z,19.63
2022-08-20T02:24:43.517Z,19.62
2022-08-20T02:27:48.901Z,19.60
2022-08-20T02:30:52.096Z,19.55
2022-08-20T02:34:18.170Z,19.57
2022-08-20T02:37:18.411Z,19.53
2022-08-20T02:40:27.334Z,19.56
2022-08-20T02:43:34.487Z,19.55
2022-08-20T02:46:36.358Z,19.57
2022-08-20T02:49:38.350Z,19.58
2022-08-20T02:52:40.396Z,19.58
2022-08-20T02:55:53.987Z,19.60
2022-08-20T02:58:57.282Z,19.58
2022-08-20T03:02:05.691Z,19.55
2022-08-20T03:05:08.231Z,19.53
2022-08-20T03:08:11.493Z,19.53
2022-08-20T03:11:14.374Z,19.50
2022-08-20T03:14:17.934Z,19.52
2022-08-20T03:17:19.919Z,19.50
2022-08-20T03:20:25.174Z,19.47
2022-08-20T03:23:29.773Z,19.52
2022-08-20T03:26:32.037Z,19.54
2022-08-20T03:29:35.116Z,19.51
2022-08-20T03:32:42.381Z,19.53
2022-08-20T03:35:44.462Z,19.51
2022-08-20T03:38:46.235Z,19.49
2022-08-20T03:41:49.206Z,19.46
2022-08-20T03:44:59.098Z,19.47
2022-08-20T03:48:01.702Z,19.44
2022-08-20T03:51:03.433Z,19.47
2022-08-20T03:54:06.018Z,19.48
2022-08-20T03:57:13.213Z,19.48
2022-08-20T04:00:20.659Z,19.48
2022-08-20T04:03:22.451Z,19.42
2022-08-20T04:06:24.445Z,19.41
2022-08-20T04:09:26.428Z,19.44
2022-08-20T04:12:27.918Z,19.38
2022-08-20T04:15:32.448Z,19.36
2022-08-20T04:18:34.425Z,19.37
2022-08-20T04:21:37.814Z,19.34
2022-08-20T04:24:40.262Z,19.35
2022-08-20T04:27:42.400Z,19.31
2022-08-20T04:30:48.933Z,19.31
2022-08-20T04:33:53.523Z,19.25
2022-08-20T04:36:55.861Z,19.27
2022-08-20T04:40:16.311Z,19.22
2022-08-20T04:43:18.047Z,19.28
2022-08-20T04:46:21.933Z,19.24
2022-08-20T04:49:26.645Z,19.21
2022-08-20T04:52:28.911Z,19.18
2022-08-20T04:55:31.325Z,19.17
2022-08-20T04:58:34.437Z,19.13
2022-08-20T05:01:37.606Z,19.15
2022-08-20T05:04:39.297Z,19.18
2022-08-20T05:07:41.501Z,19.21
2022-08-20T05:10:44.644Z,19.21
2022-08-20T05:13:46.264Z,19.24
2022-08-20T05:16:50.971Z,19.31
2022-08-20T05:19:53.162Z,19.31
2022-08-20T05:22:56.345Z,19.21
2022-08-20T05:25:58.082Z,19.21
2022-08-20T05:28:59.762Z,19.20
2022-08-20T05:32:03.088Z,19.15
2022-08-20T05:35:06.175Z,19.10
2022-08-20T05:38:09.206Z,19.17
2022-08-20T05:41:13.011Z,19.18
2022-08-20T05:44:31.270Z,19.18
2022-08-20T05:47:37.238Z,19.16
2022-08-20T05:50:45.574Z,19.06
2022-08-20T05:53:47.430Z,19.08
2022-08-20T05:56:49.419Z,19.05
2022-08-20T05:59:51.602Z,18.98
2022-08-20T06:03:13.463Z,18.95
2022-08-20T06:06:20.718Z,18.83
2022-08-20T06:09:37.166Z,18.87
2022-08-20T06:12:38.950Z,18.80
2022-08-20T06:15:40.684Z,18.70
2022-08-20T06:18:43.715Z,18.67
2022-08-20T06:21:45.584Z,18.69
2022-08-20T06:24:47.491Z,18.63
2022-08-20T06:27:49.425Z,18.66
2022-08-20T06:30:51.475Z,18.64
2022-08-20T06:33:55.568Z,18.66
2022-08-20T06:36:57.424Z,18.70
2022-08-20T06:40:01.089Z,18.68
2022-08-20T06:43:02.697Z,18.68
2022-08-20T06:46:06.801Z,18.72
2022-08-20T06:49:13.202Z,18.82
2022-08-20T06:52:18.259Z,18.76
2022-08-20T06:55:20.711Z,18.78
2022-08-20T06:58:32.815Z,18.77
2022-08-20T07:01:39.836Z,18.78
2022-08-20T07:04:43.242Z,18.80
2022-08-20T07:07:49.092Z,18.82
2022-08-20T07:10:51.482Z,18.81
2022-08-20T07:13:53.556Z,18.87
2022-08-20T07:16:55.156Z,18.84
2022-08-20T07:19:58.233Z,18.86
2022-08-20T07:23:00.972Z,18.90
2022-08-20T07:26:03.756Z,18.95
2022-08-20T07:29:05.848Z,18.91
2022-08-20T07:32:26.265Z,19.02
2022-08-20T07:35:32.407Z,19.05
2022-08-20T07:38:34.804Z,19.09
2022-08-20T07:41:36.748Z,19.06
2022-08-20T07:44:39.839Z,19.04
2022-08-20T07:47:42.329Z,19.04
2022-08-20T07:50:50.346Z,19.01
2022-08-20T07:53:53.117Z,19.06
2022-08-20T07:56:55.632Z,19.01
2022-08-20T07:59:59.140Z,19.01
2022-08-20T08:03:01.132Z,18.97
2022-08-20T08:06:04.269Z,18.96
2022-08-20T08:09:07.376Z,19.11
2022-08-20T08:12:09.143Z,19.21
2022-08-20T08:15:12.704Z,19.27
2022-08-20T08:18:16.756Z,19.28
2022-08-20T08:21:22.450Z,19.27
2022-08-20T08:24:28.190Z,19.25
2022-08-20T08:27:34.365Z,19.20
2022-08-20T08:30:37.783Z,19.10
2022-08-20T08:33:40.759Z,19.15
2022-08-20T08:36:47.281Z,19.19
2022-08-20T08:39:49.305Z,19.15
2022-08-20T08:42:58.379Z,19.11
2022-08-20T08:46:01.880Z,19.14
2022-08-20T08:49:03.907Z,19.18
2022-08-20T08:52:14.620Z,19.18
2022-08-20T08:55:32.039Z,19.16
2022-08-20T08:58:42.773Z,19.25
2022-08-20T09:01:55.020Z,19.28
2022-08-20T09:05:01.150Z,19.30
2022-08-20T09:08:11.676Z,19.28
2022-08-20T09:11:19.130Z,19.31
2022-08-20T09:14:20.847Z,19.40
2022-08-20T09:17:23.422Z,19.39
2022-08-20T09:20:27.073Z,19.42
2022-08-20T09:23:31.902Z,19.48
2022-08-20T09:26:36.377Z,19.54
2022-08-20T09:29:40.494Z,19.66
2022-08-20T09:32:42.578Z,19.74
2022-08-20T09:35:46.697Z,19.81
2022-08-20T09:38:49.991Z,19.86
2022-08-20T09:41:51.639Z,19.93
2022-08-20T09:44:53.373Z,19.99
2022-08-20T09:48:10.222Z,20.14
2022-08-20T09:51:12.573Z,20.21
2022-08-20T09:54:15.595Z,20.19
2022-08-20T09:57:18.069Z,20.13
2022-08-20T10:00:19.919Z,20.02
2022-08-20T10:03:21.909Z,20.03
2022-08-20T10:06:24.415Z,20.08
2022-08-20T10:09:27.297Z,20.04
2022-08-20T10:12:29.381Z,19.97
2022-08-20T10:15:31.985Z,19.91
2022-08-20T10:18:34.467Z,19.95
2022-08-20T10:21:39.267Z,19.95
2022-08-20T10:24:42.516Z,20.07
2022-08-20T10:27:44.663Z,20.15
2022-08-20T10:30:47.269Z,20.36
2022-08-20T10:33:51.776Z,20.52
2022-08-20T10:36:53.891Z,20.69
2022-08-20T10:39:57.656Z,20.78
2022-08-20T10:42:59.936Z,20.82
2022-08-20T10:46:01.723Z,20.93
2022-08-20T10:49:04.014Z,20.97
2022-08-20T10:52:06.206Z,20.99
2022-08-20T10:55:09.949Z,20.79
2022-08-20T10:58:13.619Z,20.73
2022-08-20T11:01:28.720Z,20.77
2022-08-20T11:04:35.035Z,20.94
2022-08-20T11:07:50.661Z,21.08
2022-08-20T11:10:59.501Z,21.11
2022-08-20T11:14:01.397Z,21.06
2022-08-20T11:17:05.234Z,20.95
2022-08-20T11:20:08.151Z,20.85
2022-08-20T11:23:12.197Z,20.87
2022-08-20T11:26:20.308Z,20.80
2022-08-20T11:29:22.759Z,20.76
2022-08-20T11:32:28.706Z,20.81
2022-08-20T11:35:43.525Z,20.90
2022-08-20T11:38:51.331Z,20.86
2022-08-20T11:41:54.818Z,20.81
2022-08-20T11:44:57.122Z,20.74
2022-08-20T11:48:01.722Z,20.77
2022-08-20T11:51:04.259Z,20.84
2022-08-20T11:54:06.224Z,21.14
2022-08-20T11:57:11.390Z,21.35
2022-08-20T12:00:15.126Z,21.35
2022-08-20T12:03:17.712Z,21.34
2022-08-20T12:06:21.054Z,21.28
2022-08-20T12:09:24.855Z,21.25
2022-08-20T12:12:28.039Z,21.14
2022-08-20T12:15:29.825Z,21.06
2022-08-20T12:18:32.140Z,21.03
2022-08-20T12:21:33.897Z,20.97
2022-08-20T12:24:36.397Z,20.88
2022-08-20T12:27:39.984Z,20.86
2022-08-20T12:30:41.913Z,20.81
2022-08-20T12:33:43.445Z,20.75
2022-08-20T12:36:47.295Z,20.70
2022-08-20T12:39:50.919Z,20.67
2022-08-20T12:42:57.153Z,20.65
2022-08-20T12:45:59.290Z,20.35
2022-08-20T12:49:00.873Z,20.07
2022-08-20T12:52:02.783Z,19.94
2022-08-20T12:55:05.823Z,19.90
2022-08-20T12:58:09.433Z,19.81
2022-08-20T13:01:11.299Z,19.82
2022-08-20T13:04:13.212Z,19.84
2022-08-20T13:07:15.064Z,19.89
2022-08-20T13:10:18.706Z,19.96
2022-08-20T13:13:21.632Z,20.02
2022-08-20T13:16:23.166Z,20.06
2022-08-20T13:19:25.340Z,20.12
2022-08-20T13:22:27.366Z,20.14
2022-08-20T13:25:29.197Z,20.26
2022-08-20T13:28:32.409Z,20.41
2022-08-20T13:31:34.103Z,20.48
2022-08-20T13:34:35.884Z,20.50
2022-08-20T13:37:38.202Z,20.57
2022-08-20T13:40:39.886Z,20.59
2022-08-20T13:43:42.945Z,20.53
2022-08-20T13:46:44.593Z,20.55
2022-08-20T13:49:46.840Z,20.68
2022-08-20T13:52:49.342Z,20.88
2022-08-20T13:55:51.527Z,21.04
2022-08-20T13:58:54.627Z,21.12
2022-08-20T14:01:58.288Z,21.12
2022-08-20T14:04:59.898Z,21.03
2022-08-20T14:08:05.331Z,20.97
2022-08-20T14:11:07.161Z,20.98
2022-08-20T14:14:15.797Z,21.10
2022-08-20T14:17:18.285Z,21.10
2022-08-20T14:20:20.884Z,21.10
2022-08-20T14:23:22.687Z,21.06
2022-08-20T14:26:24.907Z,21.05
2022-08-20T14:29:28.304Z,21.04
2022-08-20T14:32:33.984Z,21.25
2022-08-20T14:35:35.621Z,21.40
2022-08-20T14:38:45.121Z,21.27
2022-08-20T14:41:50.112Z,21.26
2022-08-20T14:44:53.925Z,21.29
2022-08-20T14:47:58.900Z,21.30
2022-08-20T14:51:01.621Z,21.37
2022-08-20T14:54:03.467Z,21.49
2022-08-20T14:57:05.716Z,21.57
2022-08-20T15:00:18.558Z,21.57
2022-08-20T15:03:23.912Z,21.52
2022-08-20T15:06:25.969Z,21.58
2022-08-20T15:09:31.677Z,21.84
2022-08-20T15:12:35.403Z,21.78
2022-08-20T15:15:40.439Z,21.66
2022-08-20T15:18:43.558Z,21.55
2022-08-20T15:21:45.858Z,21.49
2022-08-20T15:24:47.580Z,21.42
2022-08-20T15:27:50.136Z,21.38
2022-08-20T15:30:53.403Z,21.31
2022-08-20T15:33:55.070Z,21.26
2022-08-20T15:37:00.078Z,21.21
2022-08-20T15:40:03.636Z,21.21
2022-08-20T15:43:05.603Z,21.22
2022-08-20T15:46:11.945Z,21.21
2022-08-20T15:49:13.810Z,21.21
2022-08-20T15:52:17.141Z,21.20
2022-08-20T15:55:18.680Z,21.18
2022-08-20T15:58:25.204Z,21.16
2022-08-20T16:01:33.200Z,21.13
2022-08-20T16:04:52.758Z,21.12
2022-08-20T16:08:04.062Z,21.10
2022-08-20T16:11:12.591Z,21.05
2022-08-20T16:14:15.946Z,21.03
2022-08-20T16:17:25.986Z,20.99
2022-08-20T16:20:35.695Z,20.98
2022-08-20T16:23:38.740Z,20.95
2022-08-20T16:26:46.858Z,20.92
2022-08-20T16:29:53.873Z,20.89
2022-08-20T16:33:01.155Z,20.85
2022-08-20T16:36:07.769Z,20.78
2022-08-20T16:39:13.021Z,20.74
2022-08-20T16:42:18.742Z,20.70
2022-08-20T16:45:24.908Z,20.67
2022-08-20T16:48:30.986Z,20.63
2022-08-20T16:51:36.332Z,20.61
2022-08-20T16:54:37.980Z,20.59
2022-08-20T16:57:39.773Z,20.59
2022-08-20T17:00:45.428Z,20.59
2022-08-20T17:03:50.734Z,20.57
2022-08-20T17:06:52.787Z,20.55
2022-08-20T17:10:07.181Z,20.54
2022-08-20T17:13:23.483Z,20.51
2022-08-20T17:16:33.089Z,20.48
2022-08-20T17:19:36.642Z,20.47
2022-08-20T17:22:43.080Z,20.42
2022-08-20T17:25:45.834Z,20.41
2022-08-20T17:28:50.963Z,20.39
2022-08-20T17:31:53.900Z,20.33
2022-08-20T17:34:58.009Z,20.30
2022-08-20T17:38:03.482Z,20.26
2022-08-20T17:41:11.886Z,20.23
2022-08-20T17:44:21.751Z,20.18
2022-08-20T17:47:26.078Z,20.12
2022-08-20T17:50:31.937Z,20.06
2022-08-20T17:53:35.718Z,20.01
2022-08-20T17:56:40.122Z,19.96
2022-08-20T17:59:59.777Z,19.93
2022-08-20T18:03:09.968Z,19.93
2022-08-20T18:06:18.133Z,19.95
2022-08-20T18:09:25.934Z,19.97
2022-08-20T18:12:34.085Z,20.00
2022-08-20T18:15:39.272Z,20.00
2022-08-20T18:18:56.939Z,19.99
2022-08-20T18:22:06.482Z,19.94
2022-08-20T18:25:13.806Z,19.89
2022-08-20T18:28:19.513Z,19.87
2022-08-20T18:31:26.481Z,19.84
2022-08-20T18:34:40.367Z,19.82
2022-08-20T18:37:43.964Z,19.78
2022-08-20T18:40:50.961Z,19.75
2022-08-20T18:44:07.381Z,19.72
2022-08-20T18:47:20.256Z,19.71
2022-08-20T18:50:24.980Z,19.68
2022-08-20T18:53:33.674Z,19.67
2022-08-20T18:56:41.204Z,19.64
2022-08-20T18:59:45.248Z,19.61
2022-08-20T19:02:53.641Z,19.59
2022-08-20T19:06:07.764Z,19.53
2022-08-20T19:09:18.378Z,19.42
2022-08-20T19:12:34.896Z,19.39
2022-08-20T19:15:40.083Z,19.38
2022-08-20T19:18:45.492Z,19.34
2022-08-20T19:21:47.511Z,19.31
2022-08-20T19:24:53.159Z,19.27
2022-08-20T19:28:05.505Z,19.21
2022-08-20T19:31:11.684Z,19.19
2022-08-20T19:34:20.314Z,19.16
2022-08-20T19:37:34.977Z,19.10
2022-08-20T19:40:46.106Z,19.06
2022-08-20T19:43:48.500Z,19.04
2022-08-20T19:46:50.213Z,19.01
2022-08-20T19:49:56.600Z,18.98
2022-08-20T19:53:03.059Z,18.91
2022-08-20T19:56:16.957Z,18.83
2022-08-20T19:59:21.199Z,18.79
2022-08-20T20:02:28.209Z,18.75
2022-08-20T20:05:29.897Z,18.72
2022-08-20T20:08:38.419Z,18.68
2022-08-20T20:11:45.329Z,18.63
2022-08-20T20:14:47.846Z,18.61
2022-08-20T20:17:49.889Z,18.55
2022-08-20T20:20:57.633Z,18.54
2022-08-20T20:24:02.873Z,18.51
2022-08-20T20:27:09.142Z,18.47
2022-08-20T20:30:20.812Z,18.46
2022-08-20T20:33:24.550Z,18.47
2022-08-20T20:36:36.946Z,18.50
2022-08-20T20:39:40.143Z,18.42
2022-08-20T20:42:43.372Z,18.42
2022-08-20T20:45:46.767Z,18.41
2022-08-20T20:48:50.269Z,18.40
2022-08-20T20:51:54.194Z,18.41
2022-08-20T20:55:08.782Z,18.39
2022-08-20T20:58:13.512Z,18.35
2022-08-20T21:01:27.326Z,18.32
2022-08-20T21:04:49.610Z,18.27
2022-08-20T21:07:52.700Z,18.19
2022-08-20T21:10:54.486Z,18.07
2022-08-20T21:13:57.608Z,17.96
2022-08-20T21:17:00.858Z,17.87
2022-08-20T21:20:11.161Z,17.77
2022-08-20T21:23:13.653Z,17.66
2022-08-20T21:26:15.738Z,17.61
2022-08-20T21:29:22.954Z,17.53
2022-08-20T21:32:26.771Z,17.45
2022-08-20T21:35:28.938Z,17.39
2022-08-20T21:38:31.346Z,17.33
2022-08-20T21:41:33.410Z,17.30
2022-08-20T21:44:40.040Z,17.31
2022-08-20T21:47:51.646Z,17.24
2022-08-20T21:50:53.558Z,17.18
2022-08-20T21:53:55.551Z,17.13
2022-08-20T21:56:59.252Z,17.05
2022-08-20T22:00:07.458Z,16.97
2022-08-20T22:03:09.338Z,16.91
2022-08-20T22:06:18.786Z,16.87
2022-08-20T22:09:20.660Z,16.79
2022-08-20T22:12:26.781Z,16.78
2022-08-20T22:15:31.327Z,16.77
2022-08-20T22:18:33.380Z,16.77
2022-08-20T22:21:36.078Z,16.71
2022-08-20T22:24:41.237Z,16.65
2022-08-20T22:27:43.116Z,16.63
2022-08-20T22:30:46.528Z,16.59
2022-08-20T22:33:48.476Z,16.70
2022-08-20T22:36:54.140Z,16.69
2022-08-20T22:39:55.889Z,16.65
2022-08-20T22:42:57.899Z,16.63
2022-08-20T22:46:01.497Z,16.60
2022-08-20T22:49:03.694Z,16.54
2022-08-20T22:52:05.754Z,16.46
2022-08-20T22:55:09.649Z,16.38
2022-08-20T22:58:11.614Z,16.37
2022-08-20T23:01:15.890Z,16.34
2022-08-20T23:04:22.269Z,16.33
2022-08-20T23:07:23.925Z,16.51
2022-08-20T23:10:26.257Z,16.63
2022-08-20T23:13:28.872Z,16.71
2022-08-20T23:16:32.642Z,16.71
2022-08-20T23:19:35.373Z,16.63
2022-08-20T23:22:37.495Z,16.60
2022-08-20T23:25:40.427Z,16.59
2022-08-20T23:28:42.169Z,16.63
2022-08-20T23:31:45.094Z,16.50
2022-08-20T23:34:49.185Z,16.38
2022-08-20T23:37:53.058Z,16.37
2022-08-20T23:40:55.629Z,16.35
2022-08-20T23:43:58.249Z,16.35
2022-08-20T23:47:02.553Z,16.26
2022-08-20T23:50:04.758Z,16.22
2022-08-20T23:53:06.703Z,16.23
2022-08-20T23:56:08.432Z,16.22
2022-08-20T23:59:10.681Z,16.16
